Takamatsu Airport
RJOT : now visible

Airfield :











YOU CAN JOIN US ON...

 
LOGIN :

Register | Disclaimer

   EN    FR    IT 

 









Legend :    VFR   Marginal VFR   IFR   Intensive IFR   Very Intensive IFR
Visi :
Ceiling :
>= 8 km
>= 3000ft
5 to 8 km
1000 to 3000 ft
1500m to 5 km
500 to 1000 ft
800 to 1500m
200 to 500 ft
< 800m
< 200 ft
Symbols :   Thunderstorms  Fog  Heavy snow  Heavy precipitations  Wind > 20 kt






- Airport Elevation : 607 ft
- IATA code : TAK


RJOT - Takamatsu

CURRENT METAR :
  • 060925Z 11003KT 070V160 3000 R26/P2000N -SHRA BR FEW000 SCT001 BKN070 24/24 Q1006 RMK 1ST000 3ST001 5AC070 A2971 1500E

EXPIRED METARs :
  • 060920Z 09004KT 4000 R26/P2000N -SHRA BR FEW000 SCT002 BKN070 24/24 Q1006 RMK 1ST000 3ST002 5AC070 A2971 1500E
  • 060900Z 09003KT 7000 -SHRA BR FEW000 SCT045 BKN080 24/24 Q1006
  • 060800Z 07004KT 030V100 6000 -SHRA BR FEW000 SCT045 BKN080 24/24 Q1005
  • 060747Z 06005KT 040V100 4000 -SHRA BR FEW002 SCT045 BKN070 24/24 Q1005 RMK 1ST002 3CU045 5AC070 A2970
  • 060700Z 04004KT 310V100 6000 -SHRA BR FEW002 SCT050 BKN070 24/24 Q1005

TAF TAF RJOT
Valid from the 06 at 06:00 until the 07 at 12:00 UTC


060515Z 0606/0712 26005KT 4000 -SHRA BR FEW005 SCT015 BKN025
TEMPO 0606/0612 3000 SHRA BR FEW001 SCT003 BKN006
BECMG 0700/0703 9999 NSW
RJJJ FIR / Asia



MET'MAP, your aeronautical weather chart ! - Copyright ORBIFLY December 2007 - Disclaimer

ORBIFLY MET'MAP TEAM :

Programming & Development : Alexandra Zaïnal
Concept & original design : Baudouin d'Aumeries
Assistance for programming : Marc-Olivier Méhu
Technical & hardware support : Manuel Goepfert

Contact : metmap@orbifly.com




SOURCES & CREDITS :

   NOAA       Earth
Advisory